sensor_id;sensor_type;location;lat;lon;timestamp;P1;durP1;ratioP1;P2;durP2;ratioP2
5569;SDS011;2808;51.240;6.794;2023-02-28T00:01:19;8.80;;;3.80;;
5569;SDS011;2808;51.240;6.794;2023-02-28T00:03:48;9.83;;;3.27;;
5569;SDS011;2808;51.240;6.794;2023-02-28T00:06:15;7.63;;;3.27;;
5569;SDS011;2808;51.240;6.794;2023-02-28T00:08:43;8.47;;;3.30;;
5569;SDS011;2808;51.240;6.794;2023-02-28T00:11:13;8.57;;;3.70;;
5569;SDS011;2808;51.240;6.794;2023-02-28T00:13:42;8.10;;;3.23;;
5569;SDS011;2808;51.240;6.794;2023-02-28T00:16:13;10.47;;;3.80;;
5569;SDS011;2808;51.240;6.794;2023-02-28T00:18:42;9.57;;;3.40;;
5569;SDS011;2808;51.240;6.794;2023-02-28T00:21:09;8.27;;;3.50;;
5569;SDS011;2808;51.240;6.794;2023-02-28T00:23:37;9.90;;;3.70;;
5569;SDS011;2808;51.240;6.794;2023-02-28T00:26:04;9.57;;;3.47;;
5569;SDS011;2808;51.240;6.794;2023-02-28T00:28:33;6.07;;;3.03;;
5569;SDS011;2808;51.240;6.794;2023-02-28T00:31:01;6.83;;;3.50;;
5569;SDS011;2808;51.240;6.794;2023-02-28T00:33:28;8.40;;;3.40;;
5569;SDS011;2808;51.240;6.794;2023-02-28T00:36:05;9.93;;;3.13;;
5569;SDS011;2808;51.240;6.794;2023-02-28T00:38:34;7.93;;;3.20;;
5569;SDS011;2808;51.240;6.794;2023-02-28T00:41:02;7.23;;;3.50;;
5569;SDS011;2808;51.240;6.794;2023-02-28T00:43:30;8.57;;;3.40;;
5569;SDS011;2808;51.240;6.794;2023-02-28T00:45:59;8.00;;;3.70;;
5569;SDS011;2808;51.240;6.794;2023-02-28T00:48:27;11.17;;;3.43;;
5569;SDS011;2808;51.240;6.794;2023-02-28T00:50:55;6.93;;;3.17;;
5569;SDS011;2808;51.240;6.794;2023-02-28T00:53:22;8.70;;;3.60;;
5569;SDS011;2808;51.240;6.794;2023-02-28T00:55:50;6.97;;;3.13;;
5569;SDS011;2808;51.240;6.794;2023-02-28T00:58:17;8.47;;;3.83;;
5569;SDS011;2808;51.240;6.794;2023-02-28T01:00:45;8.60;;;3.23;;
5569;SDS011;2808;51.240;6.794;2023-02-28T01:03:15;6.93;;;3.57;;
5569;SDS011;2808;51.240;6.794;2023-02-28T01:05:42;11.13;;;3.43;;
5569;SDS011;2808;51.240;6.794;2023-02-28T01:08:10;9.30;;;3.70;;
5569;SDS011;2808;51.240;6.794;2023-02-28T01:10:38;9.87;;;3.70;;
5569;SDS011;2808;51.240;6.794;2023-02-28T01:13:05;11.40;;;3.40;;
5569;SDS011;2808;51.240;6.794;2023-02-28T01:15:33;7.50;;;3.40;;
5569;SDS011;2808;51.240;6.794;2023-02-28T01:18:00;10.73;;;3.43;;
5569;SDS011;2808;51.240;6.794;2023-02-28T01:20:29;8.80;;;3.00;;
5569;SDS011;2808;51.240;6.794;2023-02-28T01:22:57;7.80;;;3.37;;
5569;SDS011;2808;51.240;6.794;2023-02-28T01:25:24;11.10;;;3.63;;
5569;SDS011;2808;51.240;6.794;2023-02-28T01:27:52;8.50;;;3.33;;
5569;SDS011;2808;51.240;6.794;2023-02-28T01:30:19;6.07;;;2.90;;
5569;SDS011;2808;51.240;6.794;2023-02-28T01:32:47;14.77;;;3.80;;
5569;SDS011;2808;51.240;6.794;2023-02-28T01:35:16;15.00;;;3.57;;
5569;SDS011;2808;51.240;6.794;2023-02-28T01:37:45;6.87;;;3.47;;
5569;SDS011;2808;51.240;6.794;2023-02-28T01:40:13;8.73;;;3.73;;
5569;SDS011;2808;51.240;6.794;2023-02-28T01:42:45;10.50;;;3.93;;
5569;SDS011;2808;51.240;6.794;2023-02-28T01:45:27;7.90;;;3.80;;
5569;SDS011;2808;51.240;6.794;2023-02-28T01:47:59;8.30;;;3.50;;
5569;SDS011;2808;51.240;6.794;2023-02-28T01:50:31;13.23;;;4.27;;
5569;SDS011;2808;51.240;6.794;2023-02-28T01:53:04;6.10;;;3.00;;
5569;SDS011;2808;51.240;6.794;2023-02-28T01:55:38;9.40;;;3.50;;
5569;SDS011;2808;51.240;6.794;2023-02-28T01:58:07;13.30;;;3.90;;
5569;SDS011;2808;51.240;6.794;2023-02-28T02:00:35;9.23;;;4.30;;
5569;SDS011;2808;51.240;6.794;2023-02-28T02:03:08;8.30;;;3.90;;
5569;SDS011;2808;51.240;6.794;2023-02-28T02:05:39;12.77;;;4.00;;
5569;SDS011;2808;51.240;6.794;2023-02-28T02:08:15;7.60;;;3.57;;
5569;SDS011;2808;51.240;6.794;2023-02-28T02:10:46;9.77;;;3.60;;
5569;SDS011;2808;51.240;6.794;2023-02-28T02:13:21;9.53;;;3.90;;
5569;SDS011;2808;51.240;6.794;2023-02-28T02:16:04;7.43;;;3.70;;
5569;SDS011;2808;51.240;6.794;2023-02-28T02:18:40;17.13;;;5.80;;
5569;SDS011;2808;51.240;6.794;2023-02-28T02:24:26;13.57;;;4.50;;
5569;SDS011;2808;51.240;6.794;2023-02-28T02:27:17;6.57;;;3.93;;
5569;SDS011;2808;51.240;6.794;2023-02-28T02:29:58;10.80;;;4.03;;
5569;SDS011;2808;51.240;6.794;2023-02-28T02:35:49;13.23;;;5.00;;
5569;SDS011;2808;51.240;6.794;2023-02-28T02:38:24;11.87;;;4.60;;
5569;SDS011;2808;51.240;6.794;2023-02-28T02:40:59;12.90;;;4.43;;
5569;SDS011;2808;51.240;6.794;2023-02-28T02:43:35;18.13;;;4.87;;
5569;SDS011;2808;51.240;6.794;2023-02-28T02:46:08;16.93;;;5.83;;
5569;SDS011;2808;51.240;6.794;2023-02-28T02:48:40;10.80;;;4.90;;
5569;SDS011;2808;51.240;6.794;2023-02-28T02:51:12;11.03;;;4.10;;
5569;SDS011;2808;51.240;6.794;2023-02-28T02:53:42;10.70;;;4.40;;
5569;SDS011;2808;51.240;6.794;2023-02-28T02:56:15;10.70;;;4.33;;
5569;SDS011;2808;51.240;6.794;2023-02-28T02:58:46;9.57;;;4.43;;
5569;SDS011;2808;51.240;6.794;2023-02-28T03:01:15;10.20;;;4.10;;
5569;SDS011;2808;51.240;6.794;2023-02-28T03:03:53;8.77;;;4.50;;
5569;SDS011;2808;51.240;6.794;2023-02-28T03:06:24;9.47;;;4.23;;
5569;SDS011;2808;51.240;6.794;2023-02-28T03:08:52;10.30;;;5.10;;
5569;SDS011;2808;51.240;6.794;2023-02-28T03:11:20;10.27;;;4.80;;
5569;SDS011;2808;51.240;6.794;2023-02-28T03:13:52;11.23;;;4.33;;
5569;SDS011;2808;51.240;6.794;2023-02-28T03:16:29;16.57;;;4.67;;
5569;SDS011;2808;51.240;6.794;2023-02-28T03:19:14;9.87;;;4.53;;
5569;SDS011;2808;51.240;6.794;2023-02-28T03:21:58;12.57;;;4.87;;
5569;SDS011;2808;51.240;6.794;2023-02-28T03:24:53;17.87;;;4.93;;
5569;SDS011;2808;51.240;6.794;2023-02-28T03:27:29;8.83;;;4.40;;
5569;SDS011;2808;51.240;6.794;2023-02-28T03:30:00;11.07;;;4.50;;
5569;SDS011;2808;51.240;6.794;2023-02-28T03:32:33;10.83;;;4.83;;
5569;SDS011;2808;51.240;6.794;2023-02-28T03:35:05;10.17;;;4.40;;
5569;SDS011;2808;51.240;6.794;2023-02-28T03:37:40;15.03;;;4.23;;
5569;SDS011;2808;51.240;6.794;2023-02-28T03:40:10;9.63;;;4.13;;
5569;SDS011;2808;51.240;6.794;2023-02-28T03:42:44;9.77;;;4.70;;
5569;SDS011;2808;51.240;6.794;2023-02-28T03:45:18;7.70;;;4.10;;
5569;SDS011;2808;51.240;6.794;2023-02-28T03:47:49;9.10;;;4.23;;
5569;SDS011;2808;51.240;6.794;2023-02-28T03:50:20;13.40;;;3.90;;
5569;SDS011;2808;51.240;6.794;2023-02-28T03:52:53;8.60;;;3.87;;
5569;SDS011;2808;51.240;6.794;2023-02-28T03:55:26;12.23;;;3.80;;
5569;SDS011;2808;51.240;6.794;2023-02-28T03:57:58;8.50;;;3.80;;
5569;SDS011;2808;51.240;6.794;2023-02-28T04:00:31;9.10;;;3.83;;
5569;SDS011;2808;51.240;6.794;2023-02-28T04:03:03;11.40;;;4.63;;
5569;SDS011;2808;51.240;6.794;2023-02-28T04:05:30;8.80;;;3.70;;
5569;SDS011;2808;51.240;6.794;2023-02-28T04:08:04;10.80;;;3.93;;
5569;SDS011;2808;51.240;6.794;2023-02-28T04:10:33;7.20;;;3.87;;
5569;SDS011;2808;51.240;6.794;2023-02-28T04:13:00;16.00;;;4.03;;
5569;SDS011;2808;51.240;6.794;2023-02-28T04:15:28;8.57;;;4.00;;
5569;SDS011;2808;51.240;6.794;2023-02-28T04:17:57;8.73;;;4.17;;
5569;SDS011;2808;51.240;6.794;2023-02-28T04:20:24;8.73;;;3.70;;
5569;SDS011;2808;51.240;6.794;2023-02-28T04:22:51;11.00;;;4.10;;
5569;SDS011;2808;51.240;6.794;2023-02-28T04:25:20;11.27;;;3.27;;
5569;SDS011;2808;51.240;6.794;2023-02-28T04:27:47;9.43;;;3.50;;
5569;SDS011;2808;51.240;6.794;2023-02-28T04:30:15;7.80;;;3.60;;
5569;SDS011;2808;51.240;6.794;2023-02-28T04:32:43;8.93;;;3.80;;
5569;SDS011;2808;51.240;6.794;2023-02-28T04:35:10;12.73;;;3.67;;
5569;SDS011;2808;51.240;6.794;2023-02-28T04:37:40;11.70;;;3.90;;
5569;SDS011;2808;51.240;6.794;2023-02-28T04:40:08;11.77;;;3.73;;
5569;SDS011;2808;51.240;6.794;2023-02-28T04:42:38;12.03;;;3.97;;
5569;SDS011;2808;51.240;6.794;2023-02-28T04:45:06;8.60;;;3.40;;
5569;SDS011;2808;51.240;6.794;2023-02-28T04:47:35;13.40;;;3.70;;
5569;SDS011;2808;51.240;6.794;2023-02-28T04:50:03;7.03;;;3.50;;
5569;SDS011;2808;51.240;6.794;2023-02-28T04:52:31;9.20;;;3.20;;
5569;SDS011;2808;51.240;6.794;2023-02-28T04:54:58;8.93;;;3.10;;
5569;SDS011;2808;51.240;6.794;2023-02-28T04:57:25;11.73;;;3.23;;
5569;SDS011;2808;51.240;6.794;2023-02-28T04:59:54;11.00;;;3.03;;
5569;SDS011;2808;51.240;6.794;2023-02-28T05:02:21;6.40;;;2.77;;
5569;SDS011;2808;51.240;6.794;2023-02-28T05:04:49;8.67;;;3.30;;
5569;SDS011;2808;51.240;6.794;2023-02-28T05:07:16;11.00;;;3.47;;
5569;SDS011;2808;51.240;6.794;2023-02-28T05:09:44;6.20;;;3.00;;
5569;SDS011;2808;51.240;6.794;2023-02-28T05:12:11;8.53;;;3.10;;
5569;SDS011;2808;51.240;6.794;2023-02-28T05:14:39;10.23;;;2.80;;
5569;SDS011;2808;51.240;6.794;2023-02-28T05:17:08;11.10;;;3.13;;
5569;SDS011;2808;51.240;6.794;2023-02-28T05:19:36;9.73;;;2.90;;
5569;SDS011;2808;51.240;6.794;2023-02-28T05:22:03;5.30;;;2.47;;
5569;SDS011;2808;51.240;6.794;2023-02-28T05:24:33;6.33;;;3.03;;
5569;SDS011;2808;51.240;6.794;2023-02-28T05:27:01;6.90;;;2.80;;
5569;SDS011;2808;51.240;6.794;2023-02-28T05:29:29;7.33;;;2.43;;
5569;SDS011;2808;51.240;6.794;2023-02-28T05:31:57;6.60;;;2.63;;
5569;SDS011;2808;51.240;6.794;2023-02-28T05:34:25;4.87;;;2.50;;
5569;SDS011;2808;51.240;6.794;2023-02-28T05:36:53;5.47;;;3.40;;
5569;SDS011;2808;51.240;6.794;2023-02-28T05:39:23;6.80;;;3.03;;
5569;SDS011;2808;51.240;6.794;2023-02-28T05:41:50;10.50;;;3.60;;
5569;SDS011;2808;51.240;6.794;2023-02-28T05:44:18;7.17;;;3.60;;
5569;SDS011;2808;51.240;6.794;2023-02-28T05:46:45;10.17;;;3.57;;
5569;SDS011;2808;51.240;6.794;2023-02-28T05:49:13;14.40;;;3.80;;
5569;SDS011;2808;51.240;6.794;2023-02-28T05:51:41;9.30;;;2.97;;
5569;SDS011;2808;51.240;6.794;2023-02-28T05:54:09;10.70;;;3.50;;
5569;SDS011;2808;51.240;6.794;2023-02-28T05:56:38;11.80;;;3.43;;
5569;SDS011;2808;51.240;6.794;2023-02-28T05:59:09;8.97;;;3.80;;
5569;SDS011;2808;51.240;6.794;2023-02-28T06:01:37;7.67;;;3.13;;
5569;SDS011;2808;51.240;6.794;2023-02-28T06:04:06;12.07;;;3.30;;
5569;SDS011;2808;51.240;6.794;2023-02-28T06:06:35;9.57;;;3.87;;
5569;SDS011;2808;51.240;6.794;2023-02-28T06:09:05;5.93;;;3.00;;
5569;SDS011;2808;51.240;6.794;2023-02-28T06:11:36;10.00;;;2.90;;
5569;SDS011;2808;51.240;6.794;2023-02-28T06:14:04;7.50;;;3.23;;
5569;SDS011;2808;51.240;6.794;2023-02-28T06:16:32;7.80;;;3.10;;
5569;SDS011;2808;51.240;6.794;2023-02-28T06:19:01;7.90;;;3.70;;
5569;SDS011;2808;51.240;6.794;2023-02-28T06:21:30;5.83;;;3.40;;
5569;SDS011;2808;51.240;6.794;2023-02-28T06:23:58;9.30;;;2.73;;
5569;SDS011;2808;51.240;6.794;2023-02-28T06:26:27;7.73;;;3.20;;
5569;SDS011;2808;51.240;6.794;2023-02-28T06:28:54;6.57;;;3.23;;
5569;SDS011;2808;51.240;6.794;2023-02-28T06:31:22;9.17;;;2.97;;
5569;SDS011;2808;51.240;6.794;2023-02-28T06:33:50;6.50;;;3.00;;
5569;SDS011;2808;51.240;6.794;2023-02-28T06:36:27;8.70;;;3.20;;
5569;SDS011;2808;51.240;6.794;2023-02-28T06:39:14;5.33;;;2.90;;
5569;SDS011;2808;51.240;6.794;2023-02-28T06:41:43;10.57;;;3.47;;
5569;SDS011;2808;51.240;6.794;2023-02-28T06:44:11;10.73;;;3.10;;
5569;SDS011;2808;51.240;6.794;2023-02-28T06:46:39;5.27;;;2.50;;
5569;SDS011;2808;51.240;6.794;2023-02-28T06:49:07;8.23;;;2.90;;
5569;SDS011;2808;51.240;6.794;2023-02-28T06:51:35;8.00;;;3.63;;
5569;SDS011;2808;51.240;6.794;2023-02-28T06:54:04;9.00;;;3.27;;
5569;SDS011;2808;51.240;6.794;2023-02-28T06:56:34;7.27;;;2.70;;
5569;SDS011;2808;51.240;6.794;2023-02-28T06:59:03;11.30;;;2.97;;
5569;SDS011;2808;51.240;6.794;2023-02-28T07:01:31;6.87;;;2.93;;
5569;SDS011;2808;51.240;6.794;2023-02-28T07:04:01;8.30;;;2.80;;
5569;SDS011;2808;51.240;6.794;2023-02-28T07:06:28;6.60;;;2.90;;
5569;SDS011;2808;51.240;6.794;2023-02-28T07:08:56;5.77;;;2.67;;
5569;SDS011;2808;51.240;6.794;2023-02-28T07:11:24;5.40;;;2.53;;
5569;SDS011;2808;51.240;6.794;2023-02-28T07:13:52;9.87;;;2.90;;
5569;SDS011;2808;51.240;6.794;2023-02-28T07:16:22;7.80;;;3.23;;
5569;SDS011;2808;51.240;6.794;2023-02-28T07:18:51;6.47;;;2.70;;
5569;SDS011;2808;51.240;6.794;2023-02-28T07:21:19;8.20;;;2.83;;
5569;SDS011;2808;51.240;6.794;2023-02-28T07:23:47;4.50;;;2.43;;
5569;SDS011;2808;51.240;6.794;2023-02-28T07:26:16;6.60;;;2.50;;
5569;SDS011;2808;51.240;6.794;2023-02-28T07:28:46;6.87;;;2.87;;
5569;SDS011;2808;51.240;6.794;2023-02-28T07:31:14;7.43;;;2.70;;
5569;SDS011;2808;51.240;6.794;2023-02-28T07:33:44;8.50;;;2.77;;
5569;SDS011;2808;51.240;6.794;2023-02-28T07:36:13;7.13;;;2.80;;
5569;SDS011;2808;51.240;6.794;2023-02-28T07:38:43;7.07;;;2.90;;
5569;SDS011;2808;51.240;6.794;2023-02-28T07:41:13;5.50;;;2.40;;
5569;SDS011;2808;51.240;6.794;2023-02-28T07:43:41;5.60;;;2.70;;
5569;SDS011;2808;51.240;6.794;2023-02-28T07:46:10;6.93;;;2.20;;
5569;SDS011;2808;51.240;6.794;2023-02-28T07:48:40;6.63;;;2.50;;
5569;SDS011;2808;51.240;6.794;2023-02-28T07:51:09;9.60;;;2.63;;
5569;SDS011;2808;51.240;6.794;2023-02-28T07:53:37;5.63;;;2.30;;
5569;SDS011;2808;51.240;6.794;2023-02-28T07:56:07;6.20;;;2.20;;
5569;SDS011;2808;51.240;6.794;2023-02-28T07:58:35;4.93;;;2.50;;
5569;SDS011;2808;51.240;6.794;2023-02-28T08:01:06;5.47;;;2.43;;
5569;SDS011;2808;51.240;6.794;2023-02-28T08:03:35;6.33;;;2.20;;
5569;SDS011;2808;51.240;6.794;2023-02-28T08:06:07;8.20;;;2.57;;
5569;SDS011;2808;51.240;6.794;2023-02-28T08:08:44;7.03;;;2.30;;
5569;SDS011;2808;51.240;6.794;2023-02-28T08:11:14;5.77;;;2.10;;
5569;SDS011;2808;51.240;6.794;2023-02-28T08:13:42;7.27;;;2.67;;
5569;SDS011;2808;51.240;6.794;2023-02-28T08:16:10;5.33;;;2.27;;
5569;SDS011;2808;51.240;6.794;2023-02-28T08:18:45;4.97;;;2.60;;
5569;SDS011;2808;51.240;6.794;2023-02-28T08:21:14;5.10;;;2.27;;
5569;SDS011;2808;51.240;6.794;2023-02-28T08:23:41;5.20;;;2.30;;
5569;SDS011;2808;51.240;6.794;2023-02-28T08:26:09;5.40;;;2.47;;
5569;SDS011;2808;51.240;6.794;2023-02-28T08:28:36;5.80;;;2.30;;
5569;SDS011;2808;51.240;6.794;2023-02-28T08:31:07;4.90;;;2.30;;
5569;SDS011;2808;51.240;6.794;2023-02-28T08:33:35;5.37;;;2.00;;
5569;SDS011;2808;51.240;6.794;2023-02-28T08:36:04;4.70;;;2.10;;
5569;SDS011;2808;51.240;6.794;2023-02-28T08:38:37;4.60;;;2.00;;
5569;SDS011;2808;51.240;6.794;2023-02-28T08:41:07;4.23;;;2.00;;
5569;SDS011;2808;51.240;6.794;2023-02-28T08:43:36;7.27;;;2.30;;
5569;SDS011;2808;51.240;6.794;2023-02-28T08:46:04;5.53;;;2.03;;
5569;SDS011;2808;51.240;6.794;2023-02-28T08:48:35;5.33;;;2.00;;
5569;SDS011;2808;51.240;6.794;2023-02-28T08:51:04;4.37;;;2.20;;
5569;SDS011;2808;51.240;6.794;2023-02-28T08:53:34;3.63;;;2.00;;
5569;SDS011;2808;51.240;6.794;2023-02-28T08:56:04;5.80;;;2.23;;
5569;SDS011;2808;51.240;6.794;2023-02-28T08:58:33;5.97;;;2.00;;
5569;SDS011;2808;51.240;6.794;2023-02-28T09:01:11;6.30;;;2.40;;
5569;SDS011;2808;51.240;6.794;2023-02-28T09:03:40;3.83;;;1.90;;
5569;SDS011;2808;51.240;6.794;2023-02-28T09:06:11;4.23;;;1.83;;
5569;SDS011;2808;51.240;6.794;2023-02-28T09:08:41;6.23;;;2.37;;
5569;SDS011;2808;51.240;6.794;2023-02-28T09:11:09;5.27;;;1.87;;
5569;SDS011;2808;51.240;6.794;2023-02-28T09:13:39;5.40;;;2.17;;
5569;SDS011;2808;51.240;6.794;2023-02-28T09:16:08;3.50;;;1.90;;
5569;SDS011;2808;51.240;6.794;2023-02-28T09:18:38;5.37;;;2.20;;
5569;SDS011;2808;51.240;6.794;2023-02-28T09:21:06;4.00;;;1.93;;
5569;SDS011;2808;51.240;6.794;2023-02-28T09:23:38;9.47;;;2.50;;
5569;SDS011;2808;51.240;6.794;2023-02-28T09:26:15;4.00;;;1.70;;
5569;SDS011;2808;51.240;6.794;2023-02-28T09:28:44;5.63;;;2.57;;
5569;SDS011;2808;51.240;6.794;2023-02-28T09:31:12;4.00;;;2.07;;
5569;SDS011;2808;51.240;6.794;2023-02-28T09:33:41;4.80;;;2.00;;
5569;SDS011;2808;51.240;6.794;2023-02-28T09:36:08;5.37;;;1.80;;
5569;SDS011;2808;51.240;6.794;2023-02-28T09:38:36;4.00;;;1.80;;
5569;SDS011;2808;51.240;6.794;2023-02-28T09:41:09;3.30;;;1.70;;
5569;SDS011;2808;51.240;6.794;2023-02-28T09:43:43;3.70;;;1.93;;
5569;SDS011;2808;51.240;6.794;2023-02-28T09:46:26;4.57;;;1.80;;
5569;SDS011;2808;51.240;6.794;2023-02-28T09:48:57;5.33;;;1.63;;
5569;SDS011;2808;51.240;6.794;2023-02-28T09:51:30;3.93;;;2.00;;
5569;SDS011;2808;51.240;6.794;2023-02-28T09:54:04;4.70;;;1.97;;
5569;SDS011;2808;51.240;6.794;2023-02-28T09:56:35;6.87;;;2.10;;
5569;SDS011;2808;51.240;6.794;2023-02-28T09:59:06;5.83;;;2.03;;
5569;SDS011;2808;51.240;6.794;2023-02-28T10:01:42;5.80;;;2.30;;
5569;SDS011;2808;51.240;6.794;2023-02-28T10:04:18;3.90;;;2.00;;
5569;SDS011;2808;51.240;6.794;2023-02-28T10:07:01;4.33;;;2.10;;
5569;SDS011;2808;51.240;6.794;2023-02-28T10:09:42;5.70;;;1.90;;
5569;SDS011;2808;51.240;6.794;2023-02-28T10:12:13;4.07;;;1.90;;
5569;SDS011;2808;51.240;6.794;2023-02-28T10:14:44;5.13;;;2.03;;
5569;SDS011;2808;51.240;6.794;2023-02-28T10:17:16;4.73;;;2.50;;
5569;SDS011;2808;51.240;6.794;2023-02-28T10:19:51;3.53;;;1.87;;
5569;SDS011;2808;51.240;6.794;2023-02-28T10:22:26;4.17;;;1.73;;
5569;SDS011;2808;51.240;6.794;2023-02-28T10:25:00;4.93;;;2.13;;
5569;SDS011;2808;51.240;6.794;2023-02-28T10:27:32;7.97;;;2.30;;
5569;SDS011;2808;51.240;6.794;2023-02-28T10:30:01;4.60;;;2.10;;
5569;SDS011;2808;51.240;6.794;2023-02-28T10:32:30;4.00;;;1.80;;
5569;SDS011;2808;51.240;6.794;2023-02-28T10:35:00;5.13;;;2.13;;
5569;SDS011;2808;51.240;6.794;2023-02-28T10:37:41;4.70;;;2.00;;
5569;SDS011;2808;51.240;6.794;2023-02-28T10:40:24;7.17;;;2.10;;
5569;SDS011;2808;51.240;6.794;2023-02-28T10:42:57;4.90;;;1.83;;
5569;SDS011;2808;51.240;6.794;2023-02-28T10:45:26;10.30;;;2.10;;
5569;SDS011;2808;51.240;6.794;2023-02-28T10:48:00;10.03;;;2.23;;
5569;SDS011;2808;51.240;6.794;2023-02-28T10:50:39;5.50;;;1.90;;
5569;SDS011;2808;51.240;6.794;2023-02-28T10:53:28;6.90;;;1.83;;
5569;SDS011;2808;51.240;6.794;2023-02-28T10:55:59;4.07;;;1.50;;
5569;SDS011;2808;51.240;6.794;2023-02-28T10:58:30;3.80;;;1.53;;
5569;SDS011;2808;51.240;6.794;2023-02-28T11:01:12;5.38;;;2.05;;
5569;SDS011;2808;51.240;6.794;2023-02-28T11:03:41;4.47;;;1.87;;
5569;SDS011;2808;51.240;6.794;2023-02-28T11:06:12;4.20;;;1.70;;
5569;SDS011;2808;51.240;6.794;2023-02-28T11:08:46;8.80;;;2.13;;
5569;SDS011;2808;51.240;6.794;2023-02-28T11:11:16;3.93;;;1.40;;
5569;SDS011;2808;51.240;6.794;2023-02-28T11:13:46;7.63;;;2.07;;
5569;SDS011;2808;51.240;6.794;2023-02-28T11:16:17;5.33;;;2.20;;
5569;SDS011;2808;51.240;6.794;2023-02-28T11:18:48;4.95;;;1.98;;
5569;SDS011;2808;51.240;6.794;2023-02-28T11:21:22;3.97;;;1.90;;
5569;SDS011;2808;51.240;6.794;2023-02-28T11:23:53;5.87;;;2.30;;
5569;SDS011;2808;51.240;6.794;2023-02-28T11:26:36;3.40;;;1.40;;
5569;SDS011;2808;51.240;6.794;2023-02-28T11:29:10;5.73;;;1.90;;
5569;SDS011;2808;51.240;6.794;2023-02-28T11:31:44;3.53;;;1.77;;
5569;SDS011;2808;51.240;6.794;2023-02-28T11:34:46;3.87;;;1.70;;
5569;SDS011;2808;51.240;6.794;2023-02-28T11:37:26;3.83;;;1.77;;
5569;SDS011;2808;51.240;6.794;2023-02-28T11:39:54;5.30;;;1.90;;
5569;SDS011;2808;51.240;6.794;2023-02-28T11:45:18;5.70;;;1.70;;
5569;SDS011;2808;51.240;6.794;2023-02-28T11:47:59;4.80;;;1.80;;
5569;SDS011;2808;51.240;6.794;2023-02-28T11:50:38;3.53;;;1.70;;
5569;SDS011;2808;51.240;6.794;2023-02-28T11:53:19;3.97;;;2.03;;
5569;SDS011;2808;51.240;6.794;2023-02-28T11:55:57;3.60;;;2.07;;
5569;SDS011;2808;51.240;6.794;2023-02-28T11:58:38;5.23;;;1.60;;
5569;SDS011;2808;51.240;6.794;2023-02-28T12:01:23;3.27;;;1.80;;
5569;SDS011;2808;51.240;6.794;2023-02-28T12:04:04;5.00;;;1.80;;
5569;SDS011;2808;51.240;6.794;2023-02-28T12:06:45;4.60;;;1.77;;
5569;SDS011;2808;51.240;6.794;2023-02-28T12:09:20;5.40;;;2.00;;
5569;SDS011;2808;51.240;6.794;2023-02-28T12:12:11;5.67;;;2.10;;
5569;SDS011;2808;51.240;6.794;2023-02-28T12:14:54;4.60;;;2.13;;
5569;SDS011;2808;51.240;6.794;2023-02-28T12:17:49;3.47;;;1.67;;
5569;SDS011;2808;51.240;6.794;2023-02-28T12:20:25;6.70;;;2.03;;
5569;SDS011;2808;51.240;6.794;2023-02-28T12:23:03;5.17;;;2.20;;
5569;SDS011;2808;51.240;6.794;2023-02-28T12:25:55;4.50;;;2.07;;
5569;SDS011;2808;51.240;6.794;2023-02-28T12:28:36;3.60;;;1.87;;
5569;SDS011;2808;51.240;6.794;2023-02-28T12:31:09;7.63;;;1.90;;
5569;SDS011;2808;51.240;6.794;2023-02-28T12:33:42;4.70;;;1.97;;
5569;SDS011;2808;51.240;6.794;2023-02-28T12:36:13;6.17;;;2.50;;
5569;SDS011;2808;51.240;6.794;2023-02-28T12:38:44;3.93;;;1.90;;
5569;SDS011;2808;51.240;6.794;2023-02-28T12:41:31;8.00;;;2.13;;
5569;SDS011;2808;51.240;6.794;2023-02-28T12:44:03;4.83;;;2.50;;
5569;SDS011;2808;51.240;6.794;2023-02-28T12:46:37;5.70;;;2.00;;
5569;SDS011;2808;51.240;6.794;2023-02-28T12:49:12;6.10;;;1.90;;
5569;SDS011;2808;51.240;6.794;2023-02-28T12:51:42;4.10;;;2.00;;
5569;SDS011;2808;51.240;6.794;2023-02-28T12:54:13;4.30;;;2.43;;
5569;SDS011;2808;51.240;6.794;2023-02-28T12:56:47;5.13;;;2.00;;
5569;SDS011;2808;51.240;6.794;2023-02-28T12:59:22;5.33;;;2.00;;
5569;SDS011;2808;51.240;6.794;2023-02-28T13:05:21;5.60;;;2.23;;
5569;SDS011;2808;51.240;6.794;2023-02-28T13:08:11;3.90;;;1.90;;
5569;SDS011;2808;51.240;6.794;2023-02-28T13:11:05;5.87;;;2.30;;
5569;SDS011;2808;51.240;6.794;2023-02-28T13:13:33;6.80;;;2.27;;
5569;SDS011;2808;51.240;6.794;2023-02-28T13:16:04;6.80;;;1.83;;
5569;SDS011;2808;51.240;6.794;2023-02-28T13:18:35;5.30;;;2.00;;
5569;SDS011;2808;51.240;6.794;2023-02-28T13:21:08;3.47;;;1.80;;
5569;SDS011;2808;51.240;6.794;2023-02-28T13:23:58;4.00;;;2.03;;
5569;SDS011;2808;51.240;6.794;2023-02-28T13:33:21;4.93;;;2.40;;
5569;SDS011;2808;51.240;6.794;2023-02-28T13:45:39;6.73;;;2.10;;
5569;SDS011;2808;51.240;6.794;2023-02-28T13:48:49;5.87;;;2.50;;
5569;SDS011;2808;51.240;6.794;2023-02-28T13:52:02;4.67;;;2.30;;
5569;SDS011;2808;51.240;6.794;2023-02-28T13:54:48;6.43;;;2.20;;
5569;SDS011;2808;51.240;6.794;2023-02-28T13:57:50;5.67;;;2.13;;
5569;SDS011;2808;51.240;6.794;2023-02-28T14:00:39;5.00;;;2.30;;
5569;SDS011;2808;51.240;6.794;2023-02-28T14:03:22;4.60;;;2.30;;
5569;SDS011;2808;51.240;6.794;2023-02-28T14:06:08;5.03;;;2.17;;
5569;SDS011;2808;51.240;6.794;2023-02-28T14:08:47;4.70;;;2.63;;
5569;SDS011;2808;51.240;6.794;2023-02-28T14:11:25;5.83;;;2.20;;
5569;SDS011;2808;51.240;6.794;2023-02-28T14:13:58;5.50;;;2.13;;
5569;SDS011;2808;51.240;6.794;2023-02-28T14:16:35;6.50;;;2.60;;
5569;SDS011;2808;51.240;6.794;2023-02-28T14:19:09;5.80;;;2.40;;
5569;SDS011;2808;51.240;6.794;2023-02-28T14:21:47;6.90;;;2.17;;
5569;SDS011;2808;51.240;6.794;2023-02-28T14:24:41;13.53;;;2.47;;
5569;SDS011;2808;51.240;6.794;2023-02-28T14:27:31;5.13;;;2.20;;
5569;SDS011;2808;51.240;6.794;2023-02-28T14:33:21;3.80;;;2.03;;
5569;SDS011;2808;51.240;6.794;2023-02-28T14:36:07;5.27;;;2.40;;
5569;SDS011;2808;51.240;6.794;2023-02-28T14:38:42;7.30;;;2.87;;
5569;SDS011;2808;51.240;6.794;2023-02-28T14:41:16;7.03;;;2.17;;
5569;SDS011;2808;51.240;6.794;2023-02-28T14:43:51;8.13;;;2.43;;
5569;SDS011;2808;51.240;6.794;2023-02-28T14:46:23;6.33;;;2.70;;
5569;SDS011;2808;51.240;6.794;2023-02-28T14:48:53;5.17;;;2.33;;
5569;SDS011;2808;51.240;6.794;2023-02-28T14:51:21;3.70;;;2.03;;
5569;SDS011;2808;51.240;6.794;2023-02-28T14:53:51;3.87;;;2.07;;
5569;SDS011;2808;51.240;6.794;2023-02-28T14:56:24;4.80;;;2.20;;
5569;SDS011;2808;51.240;6.794;2023-02-28T14:58:58;6.13;;;2.50;;
5569;SDS011;2808;51.240;6.794;2023-02-28T15:01:26;4.50;;;2.30;;
5569;SDS011;2808;51.240;6.794;2023-02-28T15:03:57;7.30;;;2.90;;
5569;SDS011;2808;51.240;6.794;2023-02-28T15:06:28;7.30;;;2.40;;
5569;SDS011;2808;51.240;6.794;2023-02-28T15:11:45;5.50;;;2.80;;
5569;SDS011;2808;51.240;6.794;2023-02-28T15:14:17;6.00;;;2.60;;
5569;SDS011;2808;51.240;6.794;2023-02-28T15:16:46;5.53;;;2.50;;
5569;SDS011;2808;51.240;6.794;2023-02-28T15:19:20;3.30;;;2.00;;
5569;SDS011;2808;51.240;6.794;2023-02-28T15:21:51;8.53;;;2.40;;
5569;SDS011;2808;51.240;6.794;2023-02-28T15:24:27;7.43;;;3.00;;
5569;SDS011;2808;51.240;6.794;2023-02-28T15:27:03;6.27;;;2.80;;
5569;SDS011;2808;51.240;6.794;2023-02-28T15:29:37;9.77;;;2.77;;
5569;SDS011;2808;51.240;6.794;2023-02-28T15:32:20;6.53;;;2.97;;
5569;SDS011;2808;51.240;6.794;2023-02-28T15:34:50;5.30;;;2.73;;
5569;SDS011;2808;51.240;6.794;2023-02-28T15:37:30;6.13;;;2.47;;
5569;SDS011;2808;51.240;6.794;2023-02-28T15:40:17;9.33;;;2.50;;
5569;SDS011;2808;51.240;6.794;2023-02-28T15:42:59;8.13;;;3.03;;
5569;SDS011;2808;51.240;6.794;2023-02-28T15:45:41;4.80;;;2.43;;
5569;SDS011;2808;51.240;6.794;2023-02-28T15:48:19;6.67;;;2.63;;
5569;SDS011;2808;51.240;6.794;2023-02-28T15:50:51;8.87;;;2.93;;
5569;SDS011;2808;51.240;6.794;2023-02-28T15:53:23;8.90;;;2.73;;
5569;SDS011;2808;51.240;6.794;2023-02-28T15:55:55;5.23;;;2.50;;
5569;SDS011;2808;51.240;6.794;2023-02-28T15:58:27;5.70;;;2.70;;
5569;SDS011;2808;51.240;6.794;2023-02-28T16:01:07;4.63;;;2.37;;
5569;SDS011;2808;51.240;6.794;2023-02-28T16:03:47;4.00;;;2.37;;
5569;SDS011;2808;51.240;6.794;2023-02-28T16:06:22;5.97;;;2.57;;
5569;SDS011;2808;51.240;6.794;2023-02-28T16:09:03;5.90;;;2.83;;
5569;SDS011;2808;51.240;6.794;2023-02-28T16:11:33;4.77;;;2.23;;
5569;SDS011;2808;51.240;6.794;2023-02-28T16:14:06;8.30;;;2.57;;
5569;SDS011;2808;51.240;6.794;2023-02-28T16:16:43;8.43;;;2.83;;
5569;SDS011;2808;51.240;6.794;2023-02-28T16:19:12;5.53;;;3.00;;
5569;SDS011;2808;51.240;6.794;2023-02-28T16:21:39;5.30;;;3.03;;